sensor_id;sensor_type;location;lat;lon;timestamp;pressure;altitude;pressure_sealevel;temperature;humidity
43488;BME280;29078;41.932;25.554;2023-04-20T00:01:39;99096.09;;;13.78;67.30
43488;BME280;29078;41.932;25.554;2023-04-20T00:04:05;99064.94;;;13.60;67.30
43488;BME280;29078;41.932;25.554;2023-04-20T00:06:30;99048.66;;;13.36;66.93
43488;BME280;29078;41.932;25.554;2023-04-20T00:08:58;99126.88;;;13.92;66.81
43488;BME280;29078;41.932;25.554;2023-04-20T00:11:23;99063.50;;;13.57;67.21
43488;BME280;29078;41.932;25.554;2023-04-20T00:13:49;99074.53;;;13.61;67.16
43488;BME280;29078;41.932;25.554;2023-04-20T00:16:14;99117.50;;;13.89;66.79
43488;BME280;29078;41.932;25.554;2023-04-20T00:18:40;99028.06;;;13.32;66.89
43488;BME280;29078;41.932;25.554;2023-04-20T00:21:05;99083.91;;;13.63;66.83
43488;BME280;29078;41.932;25.554;2023-04-20T00:23:31;99096.31;;;13.70;67.00
43488;BME280;29078;41.932;25.554;2023-04-20T00:25:57;99119.56;;;13.81;66.79
43488;BME280;29078;41.932;25.554;2023-04-20T00:28:22;99099.22;;;13.61;66.83
43488;BME280;29078;41.932;25.554;2023-04-20T00:30:47;99090.03;;;13.57;66.80
43488;BME280;29078;41.932;25.554;2023-04-20T00:33:13;99018.09;;;13.08;66.82
43488;BME280;29078;41.932;25.554;2023-04-20T00:35:38;99122.03;;;13.69;66.91
43488;BME280;29078;41.932;25.554;2023-04-20T00:38:03;99118.78;;;13.67;66.94
43488;BME280;29078;41.932;25.554;2023-04-20T00:40:29;99110.44;;;13.57;66.72
43488;BME280;29078;41.932;25.554;2023-04-20T00:42:55;99043.59;;;13.22;66.49
43488;BME280;29078;41.932;25.554;2023-04-20T00:45:20;99098.41;;;13.54;66.79
43488;BME280;29078;41.932;25.554;2023-04-20T00:47:46;99029.28;;;13.16;66.84
43488;BME280;29078;41.932;25.554;2023-04-20T00:50:12;99036.03;;;13.12;66.71
43488;BME280;29078;41.932;25.554;2023-04-20T00:52:38;99090.91;;;13.38;66.76
43488;BME280;29078;41.932;25.554;2023-04-20T00:55:04;99045.00;;;13.04;66.95
43488;BME280;29078;41.932;25.554;2023-04-20T00:57:31;99003.88;;;12.82;67.00
43488;BME280;29078;41.932;25.554;2023-04-20T00:59:56;99106.59;;;13.40;67.25
43488;BME280;29078;41.932;25.554;2023-04-20T01:02:22;99103.94;;;13.40;67.08
43488;BME280;29078;41.932;25.554;2023-04-20T01:04:47;99050.94;;;13.00;67.15
43488;BME280;29078;41.932;25.554;2023-04-20T01:07:13;99117.81;;;13.35;67.27
43488;BME280;29078;41.932;25.554;2023-04-20T01:09:38;99107.81;;;13.37;67.07
43488;BME280;29078;41.932;25.554;2023-04-20T01:12:05;99115.97;;;13.35;67.39
43488;BME280;29078;41.932;25.554;2023-04-20T01:14:31;99046.44;;;13.00;67.22
43488;BME280;29078;41.932;25.554;2023-04-20T01:16:56;99064.78;;;12.95;67.41
43488;BME280;29078;41.932;25.554;2023-04-20T01:19:22;99116.78;;;13.29;67.33
43488;BME280;29078;41.932;25.554;2023-04-20T01:21:48;99009.38;;;12.67;67.16
43488;BME280;29078;41.932;25.554;2023-04-20T01:24:13;99099.25;;;13.28;67.49
43488;BME280;29078;41.932;25.554;2023-04-20T01:26:39;99060.09;;;12.97;67.47
43488;BME280;29078;41.932;25.554;2023-04-20T01:29:04;99025.47;;;12.79;67.54
43488;BME280;29078;41.932;25.554;2023-04-20T01:31:30;99103.75;;;13.28;67.33
43488;BME280;29078;41.932;25.554;2023-04-20T01:33:55;99038.09;;;12.90;67.35
43488;BME280;29078;41.932;25.554;2023-04-20T01:36:21;99040.56;;;12.85;67.29
43488;BME280;29078;41.932;25.554;2023-04-20T01:38:46;99101.09;;;13.21;67.27
43488;BME280;29078;41.932;25.554;2023-04-20T01:41:12;99106.59;;;13.20;67.26
43488;BME280;29078;41.932;25.554;2023-04-20T01:43:38;99004.06;;;12.61;67.33
43488;BME280;29078;41.932;25.554;2023-04-20T01:46:04;99104.97;;;13.19;67.64
43488;BME280;29078;41.932;25.554;2023-04-20T01:48:30;99101.06;;;13.15;67.45
43488;BME280;29078;41.932;25.554;2023-04-20T01:50:55;99104.34;;;13.10;67.20
43488;BME280;29078;41.932;25.554;2023-04-20T01:53:21;99084.16;;;12.96;66.95
43488;BME280;29078;41.932;25.554;2023-04-20T01:55:50;99094.16;;;13.00;67.00
43488;BME280;29078;41.932;25.554;2023-04-20T01:58:15;99045.25;;;12.63;66.81
43488;BME280;29078;41.932;25.554;2023-04-20T02:00:41;99003.44;;;12.39;66.98
43488;BME280;29078;41.932;25.554;2023-04-20T02:03:07;99024.22;;;12.49;66.94
43488;BME280;29078;41.932;25.554;2023-04-20T02:05:32;99020.34;;;12.38;67.19
43488;BME280;29078;41.932;25.554;2023-04-20T02:07:57;99100.06;;;12.89;67.12
43488;BME280;29078;41.932;25.554;2023-04-20T02:10:23;99021.78;;;12.34;67.05
43488;BME280;29078;41.932;25.554;2023-04-20T02:12:49;99044.59;;;12.41;67.18
43488;BME280;29078;41.932;25.554;2023-04-20T02:15:15;98974.09;;;12.01;67.01
43488;BME280;29078;41.932;25.554;2023-04-20T02:17:40;98992.59;;;12.01;67.06
43488;BME280;29078;41.932;25.554;2023-04-20T02:20:06;99026.63;;;12.24;67.38
43488;BME280;29078;41.932;25.554;2023-04-20T02:22:36;99089.66;;;12.75;67.51
43488;BME280;29078;41.932;25.554;2023-04-20T02:25:03;99108.00;;;12.76;67.35
43488;BME280;29078;41.932;25.554;2023-04-20T02:27:30;99093.94;;;12.76;67.35
43488;BME280;29078;41.932;25.554;2023-04-20T02:29:55;99046.63;;;12.46;67.11
43488;BME280;29078;41.932;25.554;2023-04-20T02:32:21;99020.53;;;12.30;66.70
43488;BME280;29078;41.932;25.554;2023-04-20T02:34:46;99054.78;;;12.45;66.78
43488;BME280;29078;41.932;25.554;2023-04-20T02:37:12;99052.75;;;12.47;66.73
43488;BME280;29078;41.932;25.554;2023-04-20T02:39:37;99046.19;;;12.29;66.20
43488;BME280;29078;41.932;25.554;2023-04-20T02:42:04;99036.63;;;12.35;66.39
43488;BME280;29078;41.932;25.554;2023-04-20T02:44:29;99025.00;;;12.23;66.69
43488;BME280;29078;41.932;25.554;2023-04-20T02:46:55;99080.03;;;12.47;66.49
43488;BME280;29078;41.932;25.554;2023-04-20T02:49:20;99032.94;;;12.23;66.34
43488;BME280;29078;41.932;25.554;2023-04-20T02:51:46;99070.84;;;12.43;66.37
43488;BME280;29078;41.932;25.554;2023-04-20T02:54:11;99058.59;;;12.22;66.16
43488;BME280;29078;41.932;25.554;2023-04-20T02:56:36;99043.53;;;12.23;66.31
43488;BME280;29078;41.932;25.554;2023-04-20T02:59:03;99094.50;;;12.51;66.01
43488;BME280;29078;41.932;25.554;2023-04-20T03:01:28;98984.53;;;11.74;65.90
43488;BME280;29078;41.932;25.554;2023-04-20T03:03:54;99003.31;;;11.80;65.95
43488;BME280;29078;41.932;25.554;2023-04-20T03:06:19;99045.50;;;11.94;66.36
43488;BME280;29078;41.932;25.554;2023-04-20T03:08:44;99012.47;;;11.84;66.03
43488;BME280;29078;41.932;25.554;2023-04-20T03:11:10;99077.13;;;12.16;65.71
43488;BME280;29078;41.932;25.554;2023-04-20T03:13:36;99109.31;;;12.32;65.84
43488;BME280;29078;41.932;25.554;2023-04-20T03:16:01;99055.31;;;12.07;65.65
43488;BME280;29078;41.932;25.554;2023-04-20T03:18:26;99087.53;;;12.24;65.89
43488;BME280;29078;41.932;25.554;2023-04-20T03:20:52;99098.94;;;12.31;65.73
43488;BME280;29078;41.932;25.554;2023-04-20T03:23:18;99031.78;;;11.77;65.64
43488;BME280;29078;41.932;25.554;2023-04-20T03:25:43;99019.38;;;11.78;65.48
43488;BME280;29078;41.932;25.554;2023-04-20T03:28:10;99041.38;;;11.85;65.65
43488;BME280;29078;41.932;25.554;2023-04-20T03:30:36;99045.91;;;11.91;65.80
43488;BME280;29078;41.932;25.554;2023-04-20T03:33:01;99027.75;;;11.88;65.41
43488;BME280;29078;41.932;25.554;2023-04-20T03:35:26;99097.09;;;12.31;65.85
43488;BME280;29078;41.932;25.554;2023-04-20T03:37:52;98981.88;;;11.61;65.39
43488;BME280;29078;41.932;25.554;2023-04-20T03:40:17;99077.09;;;12.09;65.06
43488;BME280;29078;41.932;25.554;2023-04-20T03:42:43;99090.97;;;12.18;65.30
43488;BME280;29078;41.932;25.554;2023-04-20T03:45:08;99050.78;;;11.94;65.29
43488;BME280;29078;41.932;25.554;2023-04-20T03:47:34;99004.47;;;11.70;65.71
43488;BME280;29078;41.932;25.554;2023-04-20T03:50:00;99096.88;;;12.26;65.23
43488;BME280;29078;41.932;25.554;2023-04-20T03:52:25;99053.09;;;12.11;65.31
43488;BME280;29078;41.932;25.554;2023-04-20T03:54:51;99055.31;;;12.14;65.35
43488;BME280;29078;41.932;25.554;2023-04-20T03:57:16;98993.47;;;11.67;65.07
43488;BME280;29078;41.932;25.554;2023-04-20T03:59:41;99012.88;;;11.81;65.39
43488;BME280;29078;41.932;25.554;2023-04-20T04:02:07;99107.09;;;12.43;65.57
43488;BME280;29078;41.932;25.554;2023-04-20T04:04:35;99053.28;;;12.09;65.57
43488;BME280;29078;41.932;25.554;2023-04-20T04:07:00;98992.69;;;11.73;65.28
43488;BME280;29078;41.932;25.554;2023-04-20T04:09:25;99093.03;;;12.35;65.19
43488;BME280;29078;41.932;25.554;2023-04-20T04:11:51;99065.50;;;12.17;65.33
43488;BME280;29078;41.932;25.554;2023-04-20T04:14:16;99077.53;;;12.26;65.87
43488;BME280;29078;41.932;25.554;2023-04-20T04:16:42;99030.84;;;11.92;65.68
43488;BME280;29078;41.932;25.554;2023-04-20T04:19:07;99117.53;;;12.57;66.03
43488;BME280;29078;41.932;25.554;2023-04-20T04:21:33;99110.19;;;12.59;66.11
43488;BME280;29078;41.932;25.554;2023-04-20T04:23:58;99083.28;;;12.36;65.77
43488;BME280;29078;41.932;25.554;2023-04-20T04:26:24;99022.53;;;12.08;65.80
43488;BME280;29078;41.932;25.554;2023-04-20T04:28:51;99112.28;;;12.70;65.94
43488;BME280;29078;41.932;25.554;2023-04-20T04:31:16;99049.47;;;12.31;66.09
43488;BME280;29078;41.932;25.554;2023-04-20T04:33:45;99098.38;;;12.62;65.81
43488;BME280;29078;41.932;25.554;2023-04-20T04:36:11;99091.50;;;12.74;65.90
43488;BME280;29078;41.932;25.554;2023-04-20T04:38:40;99102.50;;;12.91;65.44
43488;BME280;29078;41.932;25.554;2023-04-20T04:41:08;99043.78;;;12.54;65.27
43488;BME280;29078;41.932;25.554;2023-04-20T04:43:34;99104.75;;;13.00;65.37
43488;BME280;29078;41.932;25.554;2023-04-20T04:46:05;99057.25;;;12.72;65.22
43488;BME280;29078;41.932;25.554;2023-04-20T04:48:32;99050.75;;;12.68;65.12
43488;BME280;29078;41.932;25.554;2023-04-20T04:50:59;99029.97;;;12.72;64.95
43488;BME280;29078;41.932;25.554;2023-04-20T04:53:25;99029.75;;;12.73;64.49
43488;BME280;29078;41.932;25.554;2023-04-20T04:55:50;99048.91;;;12.89;64.47
43488;BME280;29078;41.932;25.554;2023-04-20T04:58:15;99112.53;;;13.42;64.16
43488;BME280;29078;41.932;25.554;2023-04-20T05:00:41;99108.00;;;13.49;63.78
43488;BME280;29078;41.932;25.554;2023-04-20T05:03:06;99115.75;;;13.57;63.42
43488;BME280;29078;41.932;25.554;2023-04-20T05:05:31;99052.53;;;13.27;63.32
43488;BME280;29078;41.932;25.554;2023-04-20T05:07:57;99114.28;;;13.74;63.00
43488;BME280;29078;41.932;25.554;2023-04-20T05:10:22;99001.78;;;13.11;62.39
43488;BME280;29078;41.932;25.554;2023-04-20T05:12:48;99010.75;;;13.29;61.90
43488;BME280;29078;41.932;25.554;2023-04-20T05:15:13;99019.31;;;13.38;61.29
43488;BME280;29078;41.932;25.554;2023-04-20T05:17:39;99071.41;;;13.77;60.80
43488;BME280;29078;41.932;25.554;2023-04-20T05:20:05;99089.09;;;13.96;60.61
43488;BME280;29078;41.932;25.554;2023-04-20T05:22:31;99114.13;;;14.20;60.20
43488;BME280;29078;41.932;25.554;2023-04-20T05:24:57;99013.69;;;13.66;60.03
43488;BME280;29078;41.932;25.554;2023-04-20T05:27:22;98995.41;;;13.51;59.78
43488;BME280;29078;41.932;25.554;2023-04-20T05:29:48;99014.25;;;13.75;59.80
43488;BME280;29078;41.932;25.554;2023-04-20T05:32:13;99103.81;;;14.37;59.30
43488;BME280;29078;41.932;25.554;2023-04-20T05:34:38;99030.06;;;14.01;59.30
43488;BME280;29078;41.932;25.554;2023-04-20T05:37:04;99060.16;;;14.26;59.11
43488;BME280;29078;41.932;25.554;2023-04-20T05:39:30;99118.16;;;14.68;58.83
43488;BME280;29078;41.932;25.554;2023-04-20T05:41:55;99117.34;;;14.67;57.36
43488;BME280;29078;41.932;25.554;2023-04-20T05:44:22;99129.81;;;14.67;56.66
43488;BME280;29078;41.932;25.554;2023-04-20T05:46:47;99126.56;;;14.65;56.89
43488;BME280;29078;41.932;25.554;2023-04-20T05:49:13;99107.03;;;14.52;56.27
43488;BME280;29078;41.932;25.554;2023-04-20T05:51:38;99063.66;;;14.20;56.08
43488;BME280;29078;41.932;25.554;2023-04-20T05:54:04;99070.22;;;14.18;55.61
43488;BME280;29078;41.932;25.554;2023-04-20T05:56:29;99096.47;;;14.32;55.68
43488;BME280;29078;41.932;25.554;2023-04-20T05:58:55;99040.63;;;14.08;55.54
43488;BME280;29078;41.932;25.554;2023-04-20T06:01:21;99103.38;;;14.40;55.15
43488;BME280;29078;41.932;25.554;2023-04-20T06:03:46;99035.56;;;13.99;54.77
43488;BME280;29078;41.932;25.554;2023-04-20T06:06:13;99059.59;;;14.11;54.43
43488;BME280;29078;41.932;25.554;2023-04-20T06:08:39;99107.09;;;14.32;54.40
43488;BME280;29078;41.932;25.554;2023-04-20T06:11:05;99115.25;;;14.44;54.24
43488;BME280;29078;41.932;25.554;2023-04-20T06:13:30;99134.41;;;14.53;54.27
43488;BME280;29078;41.932;25.554;2023-04-20T06:15:56;99113.41;;;14.38;54.29
43488;BME280;29078;41.932;25.554;2023-04-20T06:18:21;99126.25;;;14.48;54.36
43488;BME280;29078;41.932;25.554;2023-04-20T06:20:47;99083.31;;;14.13;54.54
43488;BME280;29078;41.932;25.554;2023-04-20T06:23:12;99094.47;;;14.28;54.24
43488;BME280;29078;41.932;25.554;2023-04-20T06:25:38;99065.94;;;14.17;54.16
43488;BME280;29078;41.932;25.554;2023-04-20T06:28:04;99072.09;;;14.04;54.54
43488;BME280;29078;41.932;25.554;2023-04-20T06:30:32;99119.97;;;14.42;54.51
43488;BME280;29078;41.932;25.554;2023-04-20T06:32:59;99118.13;;;14.43;54.47
43488;BME280;29078;41.932;25.554;2023-04-20T06:35:24;99050.50;;;13.94;54.49
43488;BME280;29078;41.932;25.554;2023-04-20T06:37:51;99092.03;;;14.26;54.50
43488;BME280;29078;41.932;25.554;2023-04-20T06:40:19;99145.19;;;14.58;54.94
43488;BME280;29078;41.932;25.554;2023-04-20T06:42:44;99128.63;;;14.62;54.82
43488;BME280;29078;41.932;25.554;2023-04-20T06:45:10;99147.94;;;14.76;54.76
43488;BME280;29078;41.932;25.554;2023-04-20T06:47:36;99093.56;;;14.47;54.62
43488;BME280;29078;41.932;25.554;2023-04-20T06:50:03;99105.22;;;14.46;54.78
43488;BME280;29078;41.932;25.554;2023-04-20T06:52:31;99158.31;;;14.91;55.00
43488;BME280;29078;41.932;25.554;2023-04-20T06:54:57;99109.72;;;14.46;54.69
43488;BME280;29078;41.932;25.554;2023-04-20T06:57:23;99050.78;;;14.24;54.47
43488;BME280;29078;41.932;25.554;2023-04-20T06:59:48;99146.59;;;14.99;54.36
43488;BME280;29078;41.932;25.554;2023-04-20T07:02:14;99088.56;;;14.64;54.12
43488;BME280;29078;41.932;25.554;2023-04-20T07:04:39;99107.22;;;14.82;54.24
43488;BME280;29078;41.932;25.554;2023-04-20T07:07:05;99092.94;;;14.77;54.08
43488;BME280;29078;41.932;25.554;2023-04-20T07:09:30;99137.91;;;15.10;54.00
43488;BME280;29078;41.932;25.554;2023-04-20T07:11:56;99131.50;;;15.17;54.13
43488;BME280;29078;41.932;25.554;2023-04-20T07:14:21;99137.84;;;15.16;53.71
43488;BME280;29078;41.932;25.554;2023-04-20T07:16:51;99152.50;;;15.25;53.73
43488;BME280;29078;41.932;25.554;2023-04-20T07:19:16;99086.91;;;14.94;53.64
43488;BME280;29078;41.932;25.554;2023-04-20T07:21:42;99054.06;;;14.82;53.48
43488;BME280;29078;41.932;25.554;2023-04-20T07:24:07;99155.53;;;15.54;53.52
43488;BME280;29078;41.932;25.554;2023-04-20T07:26:32;99120.03;;;15.42;53.06
43488;BME280;29078;41.932;25.554;2023-04-20T07:28:58;99023.41;;;14.80;53.03
43488;BME280;29078;41.932;25.554;2023-04-20T07:31:23;99113.16;;;15.34;53.03
43488;BME280;29078;41.932;25.554;2023-04-20T07:33:50;99104.56;;;15.32;52.41
43488;BME280;29078;41.932;25.554;2023-04-20T07:36:15;99138.53;;;15.55;51.74
43488;BME280;29078;41.932;25.554;2023-04-20T07:38:41;99091.13;;;15.27;51.88
43488;BME280;29078;41.932;25.554;2023-04-20T07:41:09;99140.97;;;15.63;51.27
43488;BME280;29078;41.932;25.554;2023-04-20T07:43:35;99152.56;;;15.69;50.54
43488;BME280;29078;41.932;25.554;2023-04-20T07:46:01;99130.53;;;15.62;50.40
43488;BME280;29078;41.932;25.554;2023-04-20T07:48:27;99102.72;;;15.33;49.62
43488;BME280;29078;41.932;25.554;2023-04-20T07:50:52;99104.28;;;15.40;49.49
43488;BME280;29078;41.932;25.554;2023-04-20T07:53:17;99149.53;;;15.65;49.07
43488;BME280;29078;41.932;25.554;2023-04-20T07:55:43;99056.38;;;15.22;49.62
43488;BME280;29078;41.932;25.554;2023-04-20T07:58:08;99082.78;;;15.42;49.54
43488;BME280;29078;41.932;25.554;2023-04-20T08:00:34;99145.56;;;15.93;49.67
43488;BME280;29078;41.932;25.554;2023-04-20T08:02:59;99099.84;;;15.77;49.48
43488;BME280;29078;41.932;25.554;2023-04-20T08:05:25;99133.84;;;16.12;49.42
43488;BME280;29078;41.932;25.554;2023-04-20T08:07:50;99106.41;;;16.11;48.97
43488;BME280;29078;41.932;25.554;2023-04-20T08:10:16;99139.81;;;16.44;48.71
43488;BME280;29078;41.932;25.554;2023-04-20T08:12:41;99031.06;;;15.93;48.60
43488;BME280;29078;41.932;25.554;2023-04-20T08:15:07;99093.47;;;16.45;48.42
43488;BME280;29078;41.932;25.554;2023-04-20T08:17:33;99114.59;;;16.58;47.97
43488;BME280;29078;41.932;25.554;2023-04-20T08:19:58;99101.03;;;16.48;47.74
43488;BME280;29078;41.932;25.554;2023-04-20T08:22:24;99087.22;;;16.39;47.17
43488;BME280;29078;41.932;25.554;2023-04-20T08:24:51;99023.88;;;16.23;47.19
43488;BME280;29078;41.932;25.554;2023-04-20T08:27:17;99123.97;;;16.79;46.58
43488;BME280;29078;41.932;25.554;2023-04-20T08:29:42;99146.25;;;16.96;46.95
43488;BME280;29078;41.932;25.554;2023-04-20T08:32:08;99104.25;;;16.80;46.81
43488;BME280;29078;41.932;25.554;2023-04-20T08:34:34;99141.88;;;17.02;46.61
43488;BME280;29078;41.932;25.554;2023-04-20T08:36:59;99137.34;;;17.02;46.53
43488;BME280;29078;41.932;25.554;2023-04-20T08:39:25;99090.69;;;16.70;46.62
43488;BME280;29078;41.932;25.554;2023-04-20T08:41:50;99110.06;;;16.89;46.63
43488;BME280;29078;41.932;25.554;2023-04-20T08:44:20;99138.97;;;17.03;46.74
43488;BME280;29078;41.932;25.554;2023-04-20T08:46:47;99132.53;;;17.11;46.83
43488;BME280;29078;41.932;25.554;2023-04-20T08:49:14;99104.41;;;17.08;46.76
43488;BME280;29078;41.932;25.554;2023-04-20T08:51:41;99068.00;;;16.91;46.34
43488;BME280;29078;41.932;25.554;2023-04-20T08:54:06;99026.94;;;16.68;46.00
43488;BME280;29078;41.932;25.554;2023-04-20T08:56:37;99121.75;;;17.29;45.55
43488;BME280;29078;41.932;25.554;2023-04-20T08:59:03;99116.75;;;17.33;45.63
43488;BME280;29078;41.932;25.554;2023-04-20T09:01:34;99060.47;;;16.99;45.37
43488;BME280;29078;41.932;25.554;2023-04-20T09:04:00;99057.22;;;16.97;44.49
43488;BME280;29078;41.932;25.554;2023-04-20T09:06:26;99022.19;;;16.82;44.51
43488;BME280;29078;41.932;25.554;2023-04-20T09:08:53;99070.69;;;17.14;44.28
43488;BME280;29078;41.932;25.554;2023-04-20T09:11:23;99107.47;;;17.47;43.37
43488;BME280;29078;41.932;25.554;2023-04-20T09:16:24;99033.56;;;17.01;43.09
43488;BME280;29078;41.932;25.554;2023-04-20T09:18:56;98955.88;;;16.97;42.60
43488;BME280;29078;41.932;25.554;2023-04-20T09:21:26;99108.09;;;18.41;42.15
43488;BME280;29078;41.932;25.554;2023-04-20T09:24:03;99110.31;;;18.72;41.53
43488;BME280;29078;41.932;25.554;2023-04-20T09:26:34;99118.91;;;19.25;40.25
43488;BME280;29078;41.932;25.554;2023-04-20T09:29:01;99114.31;;;19.54;39.90
43488;BME280;29078;41.932;25.554;2023-04-20T09:31:27;99115.16;;;19.76;39.44
43488;BME280;29078;41.932;25.554;2023-04-20T09:34:02;99070.09;;;19.73;38.37
43488;BME280;29078;41.932;25.554;2023-04-20T09:36:45;99084.94;;;20.03;37.58
43488;BME280;29078;41.932;25.554;2023-04-20T09:39:22;99106.31;;;20.41;37.78
43488;BME280;29078;41.932;25.554;2023-04-20T09:41:49;99019.28;;;20.05;38.23
43488;BME280;29078;41.932;25.554;2023-04-20T09:44:16;99117.34;;;20.72;37.37
43488;BME280;29078;41.932;25.554;2023-04-20T09:46:42;99022.19;;;19.98;37.25
43488;BME280;29078;41.932;25.554;2023-04-20T09:49:11;99112.03;;;20.28;37.62
43488;BME280;29078;41.932;25.554;2023-04-20T09:51:40;99111.78;;;20.29;37.68
43488;BME280;29078;41.932;25.554;2023-04-20T09:54:06;99056.75;;;20.22;37.71
43488;BME280;29078;41.932;25.554;2023-04-20T09:56:33;99109.00;;;20.68;36.99
43488;BME280;29078;41.932;25.554;2023-04-20T09:59:00;99098.16;;;20.85;36.00
43488;BME280;29078;41.932;25.554;2023-04-20T10:01:29;99103.69;;;21.05;35.00
43488;BME280;29078;41.932;25.554;2023-04-20T10:03:57;99068.28;;;21.08;35.55
43488;BME280;29078;41.932;25.554;2023-04-20T10:06:24;99088.94;;;21.45;35.47
43488;BME280;29078;41.932;25.554;2023-04-20T10:08:51;99090.47;;;21.73;34.77
43488;BME280;29078;41.932;25.554;2023-04-20T10:14:00;99004.13;;;21.54;33.99
43488;BME280;29078;41.932;25.554;2023-04-20T10:16:26;99080.19;;;22.17;33.44
43488;BME280;29078;41.932;25.554;2023-04-20T10:18:59;99020.16;;;22.01;32.96
43488;BME280;29078;41.932;25.554;2023-04-20T10:21:31;99070.84;;;22.45;32.91
43488;BME280;29078;41.932;25.554;2023-04-20T10:23:58;99048.81;;;22.53;33.44
43488;BME280;29078;41.932;25.554;2023-04-20T10:26:39;99026.47;;;22.37;30.88
43488;BME280;29078;41.932;25.554;2023-04-20T10:29:05;99021.31;;;22.26;32.14
43488;BME280;29078;41.932;25.554;2023-04-20T10:31:49;99034.00;;;22.35;31.91
43488;BME280;29078;41.932;25.554;2023-04-20T10:34:14;99055.25;;;22.57;31.86
43488;BME280;29078;41.932;25.554;2023-04-20T10:36:40;99020.28;;;22.42;31.37
43488;BME280;29078;41.932;25.554;2023-04-20T10:39:14;99030.78;;;22.43;31.74
43488;BME280;29078;41.932;25.554;2023-04-20T10:41:54;99025.94;;;22.66;31.40
43488;BME280;29078;41.932;25.554;2023-04-20T10:44:22;99045.34;;;23.08;32.03
43488;BME280;29078;41.932;25.554;2023-04-20T10:46:48;99005.22;;;22.92;31.92
43488;BME280;29078;41.932;25.554;2023-04-20T10:49:14;99050.69;;;23.29;31.30
43488;BME280;29078;41.932;25.554;2023-04-20T10:51:48;99042.03;;;23.37;29.97
43488;BME280;29078;41.932;25.554;2023-04-20T10:54:14;99010.56;;;23.27;29.88
43488;BME280;29078;41.932;25.554;2023-04-20T10:56:44;99046.78;;;23.75;29.89
43488;BME280;29078;41.932;25.554;2023-04-20T10:59:15;99043.00;;;23.76;29.85
43488;BME280;29078;41.932;25.554;2023-04-20T11:01:42;98965.88;;;23.21;30.13
43488;BME280;29078;41.932;25.554;2023-04-20T11:04:08;98971.44;;;23.40;30.32
43488;BME280;29078;41.932;25.554;2023-04-20T11:06:42;98992.13;;;23.60;30.65
43488;BME280;29078;41.932;25.554;2023-04-20T11:09:25;99037.50;;;24.07;29.87
43488;BME280;29078;41.932;25.554;2023-04-20T11:12:03;99036.22;;;23.94;30.18
43488;BME280;29078;41.932;25.554;2023-04-20T11:14:30;98985.63;;;23.71;29.55
43488;BME280;29078;41.932;25.554;2023-04-20T11:16:56;98967.00;;;23.74;29.10
43488;BME280;29078;41.932;25.554;2023-04-20T11:19:31;99032.16;;;24.41;26.84
43488;BME280;29078;41.932;25.554;2023-04-20T11:21:57;99028.53;;;24.61;28.54
43488;BME280;29078;41.932;25.554;2023-04-20T11:24:25;99012.50;;;24.35;28.68
43488;BME280;29078;41.932;25.554;2023-04-20T11:26:51;99019.91;;;24.15;28.67
43488;BME280;29078;41.932;25.554;2023-04-20T11:29:35;98885.22;;;23.40;29.52
43488;BME280;29078;41.932;25.554;2023-04-20T11:32:07;99021.91;;;23.99;29.87
43488;BME280;29078;41.932;25.554;2023-04-20T11:34:35;99015.06;;;24.12;30.04
43488;BME280;29078;41.932;25.554;2023-04-20T11:37:04;99011.88;;;24.49;29.61
43488;BME280;29078;41.932;25.554;2023-04-20T11:39:31;99016.31;;;24.68;28.61
43488;BME280;29078;41.932;25.554;2023-04-20T11:41:57;99012.97;;;24.82;28.26
43488;BME280;29078;41.932;25.554;2023-04-20T11:44:23;99007.53;;;24.87;28.07
43488;BME280;29078;41.932;25.554;2023-04-20T11:46:50;98929.19;;;24.63;27.83
43488;BME280;29078;41.932;25.554;2023-04-20T11:49:19;99021.84;;;25.16;27.39
43488;BME280;29078;41.932;25.554;2023-04-20T11:51:45;98917.13;;;24.55;26.88
43488;BME280;29078;41.932;25.554;2023-04-20T11:54:12;98954.09;;;24.84;27.06
43488;BME280;29078;41.932;25.554;2023-04-20T11:56:38;98986.09;;;25.24;27.11
43488;BME280;29078;41.932;25.554;2023-04-20T11:59:06;99002.22;;;25.06;27.76
43488;BME280;29078;41.932;25.554;2023-04-20T12:01:32;98998.00;;;24.94;28.27
43488;BME280;29078;41.932;25.554;2023-04-20T12:03:58;98934.94;;;24.51;28.69
43488;BME280;29078;41.932;25.554;2023-04-20T12:06:26;98970.25;;;24.89;28.67
43488;BME280;29078;41.932;25.554;2023-04-20T12:08:53;98921.63;;;24.89;28.35
43488;BME280;29078;41.932;25.554;2023-04-20T12:11:19;98963.75;;;24.90;28.76
43488;BME280;29078;41.932;25.554;2023-04-20T12:13:44;98987.72;;;24.96;28.64
43488;BME280;29078;41.932;25.554;2023-04-20T12:16:10;98947.56;;;24.27;29.00
43488;BME280;29078;41.932;25.554;2023-04-20T12:18:35;98985.41;;;24.12;29.59
43488;BME280;29078;41.932;25.554;2023-04-20T12:21:00;98932.66;;;23.41;29.89
43488;BME280;29078;41.932;25.554;2023-04-20T12:23:26;98950.09;;;23.54;29.68
43488;BME280;29078;41.932;25.554;2023-04-20T12:25:51;98925.28;;;23.62;29.76
43488;BME280;29078;41.932;25.554;2023-04-20T12:28:17;98966.97;;;23.85;29.64
43488;BME280;29078;41.932;25.554;2023-04-20T12:30:43;98950.25;;;23.77;29.78
43488;BME280;29078;41.932;25.554;2023-04-20T12:33:08;98921.63;;;23.92;29.14
43488;BME280;29078;41.932;25.554;2023-04-20T12:35:34;98918.97;;;24.21;28.54
43488;BME280;29078;41.932;25.554;2023-04-20T12:37:59;98932.75;;;24.58;28.04
43488;BME280;29078;41.932;25.554;2023-04-20T12:40:25;98960.72;;;24.33;28.03
43488;BME280;29078;41.932;25.554;2023-04-20T12:42:50;98885.84;;;23.76;28.44
43488;BME280;29078;41.932;25.554;2023-04-20T12:45:16;98886.63;;;23.32;28.86
43488;BME280;29078;41.932;25.554;2023-04-20T12:47:41;98955.00;;;23.41;29.39
43488;BME280;29078;41.932;25.554;2023-04-20T12:50:07;98859.13;;;22.45;29.65
43488;BME280;29078;41.932;25.554;2023-04-20T12:52:32;98920.97;;;22.81;29.88